Time;durP1;ratioP1;P1;durP2;ratioP2;P2;SDS_P1;SDS_P2;PMS_P1;PMS_P2;Temp;Humidity;BMP_temperature;BMP_pressure;BME280_temperature;BME280_humidity;BME280_pressure;Samples;Min_cycle;Max_cycle;Signal;HPM_P1;HPM_P2
2023/12/30 00:00:06;;;;;;;1.15;0.70;;;;;;;1.87;82.21;99094.47;5044691;28;20499;-78
2023/12/30 00:02:33;;;;;;;1.75;0.30;;;;;;;1.87;82.22;99095.31;5050108;28;20053;-79
2023/12/30 00:05:01;;;;;;;0.43;0.40;;;;;;;1.87;82.33;99102.22;5047909;28;20072;-78
2023/12/30 00:07:28;;;;;;;1.25;0.40;;;;;;;1.86;82.31;99103.09;5048152;28;20057;-79
2023/12/30 00:09:54;;;;;;;2.13;0.50;;;;;;;1.87;82.19;99102.22;5048239;28;20876;-78
2023/12/30 00:12:21;;;;;;;0.82;0.28;;;;;;;1.87;82.19;99103.06;5047894;28;20080;-78
2023/12/30 00:14:50;;;;;;;0.52;0.30;;;;;;;1.86;82.09;99103.09;5047169;28;20068;-78
2023/12/30 00:17:17;;;;;;;2.30;0.40;;;;;;;1.83;82.09;99101.41;5049700;28;20104;-79
2023/12/30 00:19:45;;;;;;;1.77;0.57;;;;;;;1.87;82.03;99115.97;5048604;28;20128;-78
2023/12/30 00:22:12;;;;;;;1.10;0.30;;;;;;;1.87;82.12;99115.09;5048631;28;20041;-78
2023/12/30 00:24:39;;;;;;;0.70;0.20;;;;;;;1.87;82.15;99102.22;5047321;28;20072;-78
2023/12/30 00:27:05;;;;;;;0.45;0.30;;;;;;;1.86;82.00;99111.69;5048670;28;20076;-78
2023/12/30 00:29:32;;;;;;;0.95;0.30;;;;;;;1.86;82.00;99116.84;5046686;28;20080;-79
2023/12/30 00:32:02;;;;;;;1.33;0.30;;;;;;;1.86;82.00;99105.69;5044211;28;20077;-76
2023/12/30 00:34:33;;;;;;;0.70;0.43;;;;;;;1.86;81.86;99109.09;5042445;28;20125;-77
2023/12/30 00:37:00;;;;;;;0.63;0.30;;;;;;;1.78;81.83;99090.31;5043593;28;20087;-77
2023/12/30 00:39:27;;;;;;;0.75;0.30;;;;;;;1.79;81.85;99101.47;5042767;28;20080;-75
2023/12/30 00:41:54;;;;;;;0.40;0.30;;;;;;;1.86;81.54;99116.00;5037992;28;20098;-77
2023/12/30 00:44:21;;;;;;;1.85;0.20;;;;;;;1.85;81.91;99117.72;5048359;28;20156;-77
2023/12/30 00:46:47;;;;;;;1.33;0.30;;;;;;;1.83;81.66;99119.47;5050800;28;20127;-77
2023/12/30 00:49:15;;;;;;;1.05;0.20;;;;;;;1.84;81.80;99128.03;5046687;28;20076;-77
2023/12/30 00:51:42;;;;;;;0.60;0.30;;;;;;;1.83;81.90;99122.03;5041500;28;20402;-77
2023/12/30 00:54:09;;;;;;;0.77;0.30;;;;;;;1.84;81.82;99131.47;5046197;28;20072;-77
2023/12/30 00:56:36;;;;;;;1.17;0.25;;;;;;;1.81;81.81;99128.94;5040939;28;20545;-77
2023/12/30 00:59:03;;;;;;;0.40;0.20;;;;;;;1.82;81.87;99133.25;5044456;28;20083;-77
2023/12/30 01:01:29;;;;;;;0.28;0.20;;;;;;;1.82;81.67;99134.97;5043997;28;20084;-77
2023/12/30 01:03:57;;;;;;;3.40;0.30;;;;;;;1.79;81.56;99138.44;5041499;28;20459;-76
2023/12/30 01:06:25;;;;;;;0.65;0.28;;;;;;;1.78;81.38;99148.75;5042145;28;20084;-77
2023/12/30 01:08:52;;;;;;;0.60;0.30;;;;;;;1.75;81.47;99141.91;5045058;28;20077;-76
2023/12/30 01:11:19;;;;;;;0.35;0.20;;;;;;;1.74;81.48;99153.13;5040907;28;20076;-77
2023/12/30 01:13:46;;;;;;;0.20;0.13;;;;;;;1.72;81.60;99149.69;5041440;28;20430;-77
2023/12/30 01:16:14;;;;;;;0.20;0.10;;;;;;;1.72;81.67;99154.84;5042580;28;20049;-77
2023/12/30 01:18:41;;;;;;;0.47;0.20;;;;;;;1.72;81.49;99159.16;5048951;28;20116;-77
2023/12/30 01:21:08;;;;;;;0.40;0.20;;;;;;;1.71;81.58;99163.47;5045221;28;20057;-77
2023/12/30 01:23:36;;;;;;;0.35;0.20;;;;;;;1.69;81.41;99160.91;5043912;28;20103;-77
2023/12/30 01:26:03;;;;;;;0.38;0.13;;;;;;;1.68;81.66;99163.50;5040336;28;20499;-77
2023/12/30 01:28:32;;;;;;;0.30;0.10;;;;;;;1.66;81.56;99160.09;5041576;28;20115;-78
2023/12/30 01:30:59;;;;;;;0.38;0.10;;;;;;;1.67;81.57;99172.94;5043985;28;20140;-77
2023/12/30 01:33:26;;;;;;;0.73;0.20;;;;;;;1.67;81.53;99166.94;5045203;28;20072;-77
2023/12/30 01:35:53;;;;;;;0.20;0.10;;;;;;;1.66;81.41;99175.56;5045996;28;20115;-77
2023/12/30 01:38:20;;;;;;;0.63;0.32;;;;;;;1.65;81.46;99172.13;5048387;28;20111;-78
2023/12/30 01:40:48;;;;;;;0.98;0.10;;;;;;;1.65;81.46;99173.88;5043690;28;20557;-78
2023/12/30 01:43:25;;;;;;;2.03;0.25;;;;;;;1.64;81.44;99177.28;5044087;28;20083;-77
2023/12/30 01:45:53;;;;;;;0.82;0.10;;;;;;;1.63;81.35;99168.72;5043669;28;20041;-77
2023/12/30 01:48:21;;;;;;;0.28;0.10;;;;;;;1.59;81.30;99166.19;5046957;28;20495;-76
2023/12/30 01:50:51;;;;;;;0.38;0.20;;;;;;;1.61;81.36;99172.19;5046361;28;20077;-72
2023/12/30 01:53:19;;;;;;;1.55;0.08;;;;;;;1.61;81.40;99188.50;5040852;28;20212;-72
2023/12/30 01:55:50;;;;;;;0.60;0.10;;;;;;;1.60;81.50;99185.94;5040455;28;20123;-71
2023/12/30 01:58:19;;;;;;;0.40;0.10;;;;;;;1.60;81.47;99191.09;5041448;28;20144;-72
2023/12/30 02:00:49;;;;;;;0.15;0.10;;;;;;;1.60;81.52;99191.09;5039638;28;20559;-72
2023/12/30 02:03:17;;;;;;;0.20;0.10;;;;;;;1.59;81.42;99189.38;5037487;28;20073;-72
2023/12/30 02:05:45;;;;;;;0.95;0.20;;;;;;;1.59;81.54;99194.53;5037680;28;20050;-71
2023/12/30 02:08:12;;;;;;;0.32;0.20;;;;;;;1.58;81.34;99195.41;5041712;28;20045;-72
2023/12/30 02:10:39;;;;;;;0.47;0.10;;;;;;;1.57;81.56;99197.16;5040425;28;20791;-72
2023/12/30 02:13:06;;;;;;;0.20;0.10;;;;;;;1.57;81.37;99198.88;5041814;28;20037;-71
2023/12/30 02:15:36;;;;;;;0.63;0.10;;;;;;;1.57;81.48;99201.44;5041035;28;20041;-72
2023/12/30 02:18:03;;;;;;;0.38;0.10;;;;;;;1.57;81.57;99201.44;5045114;28;20041;-72
2023/12/30 02:20:31;;;;;;;0.20;0.10;;;;;;;1.57;81.41;99210.03;5044621;28;20076;-71
2023/12/30 02:22:59;;;;;;;0.32;0.20;;;;;;;1.56;81.65;99210.91;5046309;28;20065;-71
2023/12/30 02:25:26;;;;;;;2.28;0.17;;;;;;;1.56;81.36;99208.34;5043918;28;20129;-72
2023/12/30 02:27:53;;;;;;;0.50;0.10;;;;;;;1.56;81.67;99208.34;5043312;28;20106;-72
2023/12/30 02:30:21;;;;;;;0.20;0.10;;;;;;;1.56;81.62;99210.03;5039615;28;20128;-72
2023/12/30 02:32:48;;;;;;;0.57;0.10;;;;;;;1.55;81.35;99210.91;5044008;28;20045;-72
2023/12/30 02:35:15;;;;;;;0.45;0.28;;;;;;;1.54;81.67;99216.94;5042469;28;21119;-71
2023/12/30 02:37:44;;;;;;;0.20;0.10;;;;;;;1.54;81.26;99216.94;5044807;28;20537;-72
2023/12/30 02:40:13;;;;;;;0.15;0.10;;;;;;;1.54;81.58;99217.81;5043214;28;20118;-72
2023/12/30 02:42:40;;;;;;;1.33;0.10;;;;;;;1.53;81.42;99215.22;5038883;28;20128;-72
2023/12/30 02:45:09;;;;;;;0.47;0.20;;;;;;;1.52;81.43;99214.38;5042837;28;20076;-71
2023/12/30 02:47:36;;;;;;;0.20;0.10;;;;;;;1.53;81.28;99221.22;5040752;28;20079;-72
2023/12/30 02:50:03;;;;;;;0.20;0.10;;;;;;;1.52;81.34;99218.69;5041934;28;20120;-72
2023/12/30 02:52:30;;;;;;;0.20;0.20;;;;;;;1.52;81.60;99218.69;5043530;28;20072;-77
2023/12/30 02:54:57;;;;;;;0.45;0.17;;;;;;;1.51;80.99;99217.00;5051437;28;20045;-77
2023/12/30 02:57:26;;;;;;;0.13;0.10;;;;;;;1.51;81.49;99212.69;5046597;28;20044;-77
2023/12/30 02:59:53;;;;;;;1.20;0.10;;;;;;;1.48;81.21;99226.44;5047439;28;20060;-77
2023/12/30 03:02:19;;;;;;;0.73;0.10;;;;;;;1.51;81.66;99223.00;5046747;28;20087;-72
2023/12/30 03:04:46;;;;;;;0.20;0.10;;;;;;;1.51;81.21;99212.69;5043517;28;20130;-71
2023/12/30 03:07:13;;;;;;;1.75;0.10;;;;;;;1.52;81.35;99213.53;5043195;28;20091;-71
2023/12/30 03:09:40;;;;;;;1.20;0.10;;;;;;;1.50;81.39;99207.53;5042200;28;20077;-71
2023/12/30 03:12:08;;;;;;;0.30;0.20;;;;;;;1.51;81.45;99217.00;5038319;28;20076;-72
2023/12/30 03:14:37;;;;;;;0.70;0.15;;;;;;;1.51;81.61;99224.72;5043610;28;20045;-71
2023/12/30 03:17:04;;;;;;;0.30;0.10;;;;;;;1.51;81.52;99222.16;5040161;28;20077;-71
2023/12/30 03:19:31;;;;;;;0.40;0.10;;;;;;;1.49;81.42;99222.16;5042042;28;20562;-72
2023/12/30 03:21:58;;;;;;;0.30;0.10;;;;;;;1.47;81.59;99227.31;5041927;28;20132;-71
2023/12/30 03:24:25;;;;;;;2.22;0.10;;;;;;;1.47;81.08;99234.19;5042889;28;20111;-72
2023/12/30 03:26:53;;;;;;;0.20;0.15;;;;;;;1.44;81.17;99240.22;5044350;28;20132;-71
2023/12/30 03:29:20;;;;;;;0.45;0.20;;;;;;;1.47;81.22;99241.91;5042823;28;20530;-71
2023/12/30 03:31:48;;;;;;;2.05;0.10;;;;;;;1.46;81.22;99248.81;5045231;28;20080;-72
2023/12/30 03:34:15;;;;;;;0.20;0.15;;;;;;;1.46;81.54;99245.38;5040932;28;20077;-71
2023/12/30 03:36:42;;;;;;;0.30;0.15;;;;;;;1.47;81.35;99259.97;5035981;28;20053;-72
2023/12/30 03:39:10;;;;;;;1.33;0.20;;;;;;;1.45;81.32;99248.84;5042183;28;20714;-71
2023/12/30 03:41:37;;;;;;;1.45;0.10;;;;;;;1.45;81.33;99247.09;5041000;28;20460;-71
2023/12/30 03:44:04;;;;;;;0.45;0.10;;;;;;;1.45;81.26;99249.69;5040950;28;20048;-72
2023/12/30 03:46:31;;;;;;;2.40;0.20;;;;;;;1.43;81.54;99248.84;5039473;28;20513;-72
2023/12/30 03:48:59;;;;;;;0.28;0.20;;;;;;;1.42;81.30;99248.84;5039242;28;20124;-71
2023/12/30 03:51:26;;;;;;;0.63;0.20;;;;;;;1.43;81.14;99254.00;5042374;28;21311;-71
2023/12/30 03:53:53;;;;;;;0.10;0.10;;;;;;;1.43;81.32;99258.28;5039449;28;20119;-71
2023/12/30 03:56:20;;;;;;;0.30;0.20;;;;;;;1.42;81.45;99257.44;5042129;28;20579;-72
2023/12/30 03:58:47;;;;;;;0.43;0.10;;;;;;;1.42;81.17;99262.59;5041260;28;20049;-72
2023/12/30 04:01:14;;;;;;;1.30;0.10;;;;;;;1.42;81.39;99260.03;5041695;28;20111;-76
2023/12/30 04:03:41;;;;;;;0.30;0.30;;;;;;;1.41;81.55;99253.13;5041334;28;20126;-75
2023/12/30 04:06:17;;;;;;;0.45;0.10;;;;;;;1.43;81.38;99264.28;5044406;28;20072;-75
2023/12/30 04:08:44;;;;;;;0.20;0.00;;;;;;;1.34;81.40;99256.66;5043112;28;20631;-76
2023/12/30 04:11:11;;;;;;;0.17;0.10;;;;;;;1.41;81.23;99266.03;5042819;28;20076;-71
2023/12/30 04:13:37;;;;;;;0.38;0.13;;;;;;;1.40;81.26;99272.06;5040406;28;20135;-71
2023/12/30 04:16:05;;;;;;;0.15;0.10;;;;;;;1.40;81.23;99268.63;5041999;28;20133;-71
2023/12/30 04:18:32;;;;;;;1.30;0.10;;;;;;;1.39;81.34;99272.94;5036652;28;20131;-73
2023/12/30 04:21:00;;;;;;;2.10;0.15;;;;;;;1.40;81.44;99276.38;5043264;28;20384;-71
2023/12/30 04:23:28;;;;;;;0.60;0.10;;;;;;;1.39;81.11;99280.66;5038517;28;20080;-73
2023/12/30 04:25:55;;;;;;;0.10;0.10;;;;;;;1.39;81.47;99285.81;5043205;28;20048;-71
2023/12/30 04:28:22;;;;;;;0.10;0.10;;;;;;;1.38;81.12;99291.81;5039553;28;20085;-71
2023/12/30 04:30:49;;;;;;;1.77;0.10;;;;;;;1.38;81.21;99289.25;5042027;28;20038;-71
2023/12/30 04:33:16;;;;;;;1.65;0.10;;;;;;;1.37;81.27;99292.72;5038793;28;20140;-71
2023/12/30 04:35:43;;;;;;;1.58;0.20;;;;;;;1.38;81.30;99293.56;5039133;28;20547;-72
2023/12/30 04:38:10;;;;;;;0.17;0.10;;;;;;;1.37;81.34;99302.16;5038871;28;20135;-73
2023/12/30 04:40:38;;;;;;;0.10;0.10;;;;;;;1.35;81.20;99297.00;5041165;28;20132;-72
2023/12/30 04:43:05;;;;;;;1.55;0.15;;;;;;;1.35;81.34;99309.91;5040010;28;20465;-71
2023/12/30 04:45:32;;;;;;;0.20;0.10;;;;;;;1.35;81.03;99311.63;5040531;28;20076;-72
2023/12/30 04:47:59;;;;;;;1.60;0.10;;;;;;;1.34;81.04;99318.50;5043175;28;20531;-72
2023/12/30 04:50:26;;;;;;;2.05;0.15;;;;;;;1.34;81.13;99323.66;5038113;28;20117;-71
2023/12/30 04:52:53;;;;;;;0.30;0.20;;;;;;;1.33;81.03;99332.22;5042953;28;20093;-72
2023/12/30 04:55:20;;;;;;;0.20;0.15;;;;;;;1.34;81.26;99339.13;5038606;28;20132;-72
2023/12/30 04:57:48;;;;;;;0.30;0.15;;;;;;;1.31;81.04;99333.16;5040007;28;20049;-71
2023/12/30 05:00:17;;;;;;;0.70;0.28;;;;;;;1.32;81.25;99330.53;5043061;28;20122;-74
2023/12/30 05:02:43;;;;;;;0.93;0.68;;;;;;;1.30;81.18;99336.56;5038481;28;20096;-72
2023/12/30 05:05:11;;;;;;;0.50;0.20;;;;;;;1.31;81.12;99344.31;5040542;28;20133;-72
2023/12/30 05:07:38;;;;;;;5.07;0.30;;;;;;;1.30;81.40;99357.19;5041010;28;20048;-70
2023/12/30 05:10:06;;;;;;;0.40;0.20;;;;;;;1.32;81.35;99361.47;5038820;28;20429;-71
2023/12/30 05:12:33;;;;;;;0.57;0.28;;;;;;;1.29;81.41;99365.78;5045326;28;20064;-78
2023/12/30 05:15:01;;;;;;;1.77;0.30;;;;;;;1.30;81.27;99378.66;5046982;28;20479;-78
2023/12/30 05:17:31;;;;;;;1.13;0.30;;;;;;;1.31;81.16;99379.53;5048522;28;20080;-78
2023/12/30 05:19:57;;;;;;;0.57;0.30;;;;;;;1.30;81.27;99383.78;5045479;28;20076;-78
2023/12/30 05:22:24;;;;;;;0.75;0.30;;;;;;;1.30;81.31;99391.53;5045662;28;20144;-72
2023/12/30 05:24:51;;;;;;;0.60;0.30;;;;;;;1.30;81.05;99394.09;5037740;28;20053;-72
2023/12/30 05:27:18;;;;;;;0.40;0.30;;;;;;;1.30;81.24;99394.09;5040134;28;20077;-72
2023/12/30 05:29:45;;;;;;;0.70;0.30;;;;;;;1.29;81.20;99397.56;5038993;28;20104;-71
2023/12/30 05:32:14;;;;;;;0.50;0.30;;;;;;;1.25;81.16;99398.47;5040506;28;20045;-72
2023/12/30 05:34:40;;;;;;;0.55;0.38;;;;;;;1.29;81.23;99402.72;5038424;28;20106;-72
2023/12/30 05:37:07;;;;;;;2.75;0.40;;;;;;;1.30;81.47;99407.00;5039795;28;20076;-72
2023/12/30 05:39:34;;;;;;;1.60;0.35;;;;;;;1.28;81.29;99406.16;5038806;28;20479;-72
2023/12/30 05:42:01;;;;;;;0.60;0.50;;;;;;;1.28;81.21;99411.31;5038727;28;20156;-71
2023/12/30 05:44:28;;;;;;;1.33;0.70;;;;;;;1.28;81.12;99406.16;5040895;28;20127;-72
2023/12/30 05:46:55;;;;;;;0.60;0.57;;;;;;;1.29;81.48;99407.00;5044306;28;20076;-72
2023/12/30 05:49:23;;;;;;;0.50;0.30;;;;;;;1.28;81.30;99408.75;5042075;28;20160;-72
2023/12/30 05:51:51;;;;;;;0.63;0.50;;;;;;;1.27;81.26;99409.59;5041545;28;20065;-72
2023/12/30 05:54:18;;;;;;;1.10;0.40;;;;;;;1.27;81.17;99414.75;5042754;28;20049;-72
2023/12/30 05:56:45;;;;;;;0.40;0.30;;;;;;;1.27;80.97;99414.75;5040563;28;20120;-72
2023/12/30 05:59:12;;;;;;;0.60;0.40;;;;;;;1.26;81.33;99423.34;5042467;28;20128;-72
2023/12/30 06:01:45;;;;;;;0.50;0.30;;;;;;;1.27;80.95;99419.03;5044940;28;20124;-73
2023/12/30 06:04:12;;;;;;;0.73;0.40;;;;;;;1.24;81.25;99419.91;5042920;28;20049;-72
2023/12/30 06:06:40;;;;;;;0.77;0.32;;;;;;;1.23;81.24;99419.06;5045856;28;20159;-72
2023/12/30 06:09:08;;;;;;;0.45;0.43;;;;;;;1.23;81.22;99418.22;5043546;28;20160;-72
2023/12/30 06:11:35;;;;;;;1.92;0.50;;;;;;;1.23;81.07;99424.22;5041469;28;20753;-72
2023/12/30 06:14:02;;;;;;;0.90;0.50;;;;;;;1.23;81.12;99420.78;5044144;28;20049;-72
2023/12/30 06:16:29;;;;;;;1.42;0.50;;;;;;;1.23;81.21;99420.78;5041021;28;20095;-72
2023/12/30 06:18:56;;;;;;;0.47;0.40;;;;;;;1.23;81.18;99420.78;5040466;28;20064;-72
2023/12/30 06:21:23;;;;;;;0.80;0.40;;;;;;;1.23;81.09;99426.78;5040540;28;20137;-72
2023/12/30 06:23:51;;;;;;;0.60;0.40;;;;;;;1.23;80.88;99428.53;5041640;28;20475;-72
2023/12/30 06:26:18;;;;;;;0.65;0.47;;;;;;;1.18;81.21;99427.69;5042384;28;20111;-72
2023/12/30 06:28:46;;;;;;;0.70;0.40;;;;;;;1.22;80.87;99437.09;5043252;28;20072;-72
2023/12/30 06:31:13;;;;;;;0.77;0.60;;;;;;;1.20;80.95;99431.13;5039090;28;20136;-72
2023/12/30 06:33:41;;;;;;;1.38;0.40;;;;;;;1.20;81.13;99438.84;5043658;28;20045;-71
2023/12/30 06:36:08;;;;;;;1.08;0.40;;;;;;;1.18;81.12;99435.41;5041742;28;20131;-72
2023/12/30 06:38:36;;;;;;;0.63;0.47;;;;;;;1.20;81.17;99444.00;5041732;28;20075;-72
2023/12/30 06:41:08;;;;;;;1.48;0.50;;;;;;;1.20;81.04;99454.31;5042510;28;20056;-72
2023/12/30 06:43:35;;;;;;;0.60;0.50;;;;;;;1.19;80.97;99457.72;5041176;28;20131;-72
2023/12/30 06:46:04;;;;;;;1.40;0.45;;;;;;;1.20;81.22;99464.63;5043154;28;20128;-71
2023/12/30 06:48:31;;;;;;;0.75;0.50;;;;;;;1.20;80.86;99467.19;5046149;28;20077;-71
2023/12/30 06:51:00;;;;;;;3.13;0.30;;;;;;;1.17;80.95;99462.06;5037802;28;20157;-72
2023/12/30 06:53:30;;;;;;;0.55;0.30;;;;;;;1.19;80.99;99473.19;5043502;28;20052;-72
2023/12/30 06:56:00;;;;;;;0.85;0.57;;;;;;;1.19;81.20;99483.50;5042669;28;20515;-72
2023/12/30 06:58:29;;;;;;;1.00;0.50;;;;;;;1.19;81.02;99493.78;5041309;28;20049;-71
2023/12/30 07:00:56;;;;;;;0.73;0.50;;;;;;;1.18;80.77;99494.66;5043916;28;20124;-72
2023/12/30 07:03:23;;;;;;;1.25;0.60;;;;;;;1.18;81.14;99505.81;5032954;28;20571;-72
2023/12/30 07:05:50;;;;;;;1.48;0.57;;;;;;;1.17;81.15;99509.28;5011074;28;20464;-71
2023/12/30 07:08:17;;;;;;;0.80;0.40;;;;;;;1.17;80.74;99521.31;5041090;28;20128;-71
2023/12/30 07:10:44;;;;;;;0.70;0.55;;;;;;;1.16;81.06;99517.00;5041460;28;20076;-72
2023/12/30 07:13:11;;;;;;;1.02;0.60;;;;;;;1.16;80.80;99519.56;5037450;28;20087;-71
2023/12/30 07:15:40;;;;;;;0.95;0.57;;;;;;;1.16;81.00;99532.47;5043153;28;20215;-72
2023/12/30 07:18:07;;;;;;;0.80;0.60;;;;;;;1.16;81.06;99535.03;5039683;28;20091;-72
2023/12/30 07:20:35;;;;;;;0.98;0.63;;;;;;;1.15;80.88;99533.34;5041901;28;20140;-71
2023/12/30 07:23:04;;;;;;;1.58;0.52;;;;;;;1.16;80.72;99529.88;5041719;28;20152;-72
2023/12/30 07:25:31;;;;;;;3.17;0.68;;;;;;;1.16;80.97;99540.19;5042606;28;20406;-72
2023/12/30 07:27:58;;;;;;;1.23;0.70;;;;;;;1.14;81.01;99540.22;5041612;28;20120;-72
2023/12/30 07:30:25;;;;;;;1.23;0.70;;;;;;;1.15;80.80;99544.47;5040083;28;20073;-72
2023/12/30 07:32:53;;;;;;;3.95;0.75;;;;;;;1.10;80.80;99546.22;5044473;28;20079;-76
2023/12/30 07:35:22;;;;;;;0.95;0.77;;;;;;;1.14;81.45;99553.09;5044377;28;20072;-76
2023/12/30 07:37:49;;;;;;;1.25;0.70;;;;;;;1.15;80.95;99556.50;5043289;28;20044;-75
2023/12/30 07:40:16;;;;;;;1.17;0.80;;;;;;;1.13;81.11;99564.22;5036627;28;20460;-76
2023/12/30 07:42:43;;;;;;;1.83;0.82;;;;;;;1.13;81.05;99569.38;5042156;28;20077;-78
2023/12/30 07:45:10;;;;;;;1.42;1.08;;;;;;;1.13;80.83;99566.81;5047305;28;20073;-78
2023/12/30 07:47:37;;;;;;;2.72;0.98;;;;;;;1.13;80.87;99566.81;5044274;28;20077;-77
2023/12/30 07:50:07;;;;;;;3.15;1.50;;;;;;;1.13;81.11;99573.69;5044917;28;20412;-76
2023/12/30 07:52:34;;;;;;;1.95;1.23;;;;;;;1.13;81.28;99578.84;5046774;28;20081;-78
2023/12/30 07:55:01;;;;;;;2.22;1.40;;;;;;;1.12;80.93;99577.13;5049090;28;20139;-78
2023/12/30 07:57:28;;;;;;;2.13;1.27;;;;;;;1.12;81.19;99584.88;5046260;28;20077;-77
2023/12/30 07:59:55;;;;;;;3.38;1.35;;;;;;;1.11;81.04;99588.31;5044837;28;20479;-77
2023/12/30 08:02:22;;;;;;;2.33;1.48;;;;;;;1.11;80.88;99594.31;5048712;28;20048;-77
2023/12/30 08:04:49;;;;;;;4.40;1.50;;;;;;;1.11;80.76;99599.47;5040082;28;20491;-77
2023/12/30 08:07:17;;;;;;;2.05;1.23;;;;;;;1.11;80.87;99602.03;5041925;28;20533;-77
2023/12/30 08:09:44;;;;;;;2.17;1.55;;;;;;;1.09;80.95;99606.34;5045377;28;20068;-77
2023/12/30 08:12:11;;;;;;;3.45;1.95;;;;;;;1.10;81.19;99604.63;5048921;28;20080;-78
2023/12/30 08:14:39;;;;;;;1.50;1.40;;;;;;;1.10;80.78;99617.50;5046007;28;20081;-78
2023/12/30 08:17:06;;;;;;;3.72;1.95;;;;;;;1.09;81.23;99620.94;5046245;28;20095;-77
2023/12/30 08:19:33;;;;;;;2.50;2.00;;;;;;;1.08;80.96;99627.81;5045856;28;20745;-77
2023/12/30 08:21:59;;;;;;;3.20;1.90;;;;;;;1.09;81.15;99631.25;5041545;28;20080;-77
2023/12/30 08:24:28;;;;;;;2.92;2.10;;;;;;;1.08;80.81;99635.53;5042682;28;20081;-77
2023/12/30 08:26:55;;;;;;;4.55;2.78;;;;;;;1.09;80.83;99651.84;5047937;28;20106;-77
2023/12/30 08:29:22;;;;;;;3.85;2.25;;;;;;;1.07;81.19;99645.84;5048744;28;20071;-77
2023/12/30 08:31:49;;;;;;;5.72;2.95;;;;;;;1.07;80.99;99649.25;5046480;28;20072;-77
2023/12/30 08:34:16;;;;;;;3.17;1.77;;;;;;;1.07;80.84;99648.41;5045093;28;20468;-77
2023/12/30 08:36:44;;;;;;;4.03;2.03;;;;;;;1.01;81.28;99650.13;5043007;28;20088;-78
2023/12/30 08:39:10;;;;;;;3.58;2.08;;;;;;;1.07;81.11;99656.13;5045736;28;20052;-78
2023/12/30 08:41:41;;;;;;;3.42;1.98;;;;;;;1.08;81.01;99663.00;5043942;28;20073;-77
2023/12/30 08:44:08;;;;;;;2.83;2.35;;;;;;;1.07;80.93;99667.28;5043260;28;20128;-77
2023/12/30 08:46:35;;;;;;;3.10;2.05;;;;;;;1.08;80.57;99668.16;5048865;28;20041;-77
2023/12/30 08:49:03;;;;;;;2.22;1.85;;;;;;;1.06;80.91;99673.31;5043776;28;20056;-77
2023/12/30 08:51:30;;;;;;;2.65;1.80;;;;;;;1.06;80.70;99677.63;5041505;28;20051;-72
2023/12/30 08:53:57;;;;;;;4.03;1.83;;;;;;;1.07;80.66;99679.31;5041043;28;20056;-72
2023/12/30 08:56:24;;;;;;;3.40;2.13;;;;;;;1.06;80.91;99677.63;5040917;28;20049;-71
2023/12/30 08:58:53;;;;;;;4.63;2.38;;;;;;;1.06;81.09;99688.78;5039773;28;20133;-72
2023/12/30 09:01:21;;;;;;;3.40;2.28;;;;;;;1.06;80.90;99682.78;5040043;28;20124;-70
2023/12/30 09:03:48;;;;;;;4.20;1.55;;;;;;;1.06;80.94;99687.94;5039724;28;20063;-70
2023/12/30 09:06:14;;;;;;;3.45;1.98;;;;;;;1.06;81.02;99690.50;5039466;28;20577;-70
2023/12/30 09:08:41;;;;;;;2.85;2.00;;;;;;;1.05;80.76;99686.19;5039128;28;20128;-72
2023/12/30 09:11:18;;;;;;;3.38;1.77;;;;;;;1.05;80.66;99689.66;5035717;28;20053;-72
2023/12/30 09:13:45;;;;;;;2.17;1.33;;;;;;;1.04;80.96;99690.47;5034250;28;20192;-71
2023/12/30 09:16:14;;;;;;;2.65;1.60;;;;;;;1.03;80.74;99689.63;5040325;28;20048;-72
2023/12/30 09:18:40;;;;;;;3.90;1.73;;;;;;;1.03;81.14;99705.09;5040327;28;20120;-71
2023/12/30 09:21:07;;;;;;;1.80;1.55;;;;;;;1.02;80.66;99703.38;5037831;28;20164;-71
2023/12/30 09:23:34;;;;;;;3.33;1.95;;;;;;;1.01;80.60;99705.94;5040122;28;20136;-70
2023/12/30 09:26:01;;;;;;;2.80;1.90;;;;;;;0.98;81.03;99717.09;5041972;28;20124;-71
2023/12/30 09:28:28;;;;;;;2.30;1.67;;;;;;;1.00;80.96;99724.84;5032327;28;20535;-71
2023/12/30 09:30:55;;;;;;;2.88;1.48;;;;;;;0.99;80.66;99725.69;5039314;28;20076;-71
2023/12/30 09:33:23;;;;;;;2.33;1.38;;;;;;;0.99;80.79;99734.28;5035185;28;20124;-71
2023/12/30 09:35:54;;;;;;;2.33;1.58;;;;;;;0.99;80.78;99731.72;5039589;28;20080;-70
2023/12/30 09:38:22;;;;;;;2.47;1.20;;;;;;;0.97;80.78;99728.28;5036362;28;20068;-71
2023/12/30 09:40:50;;;;;;;3.15;0.98;;;;;;;0.98;80.63;99737.72;5041792;28;20040;-71
2023/12/30 09:43:23;;;;;;;1.20;1.02;;;;;;;0.98;80.85;99736.84;5038868;28;20079;-71
2023/12/30 09:45:51;;;;;;;1.73;1.10;;;;;;;0.96;80.61;99738.56;5038450;28;20088;-71
2023/12/30 09:48:20;;;;;;;3.25;1.50;;;;;;;0.97;80.55;99745.44;5039531;28;20060;-72
2023/12/30 09:50:49;;;;;;;3.22;1.02;;;;;;;0.97;80.50;99746.31;5039348;28;20049;-74
2023/12/30 09:53:16;;;;;;;2.67;0.98;;;;;;;0.97;80.91;99750.59;5046062;28;20567;-82
2023/12/30 09:55:45;;;;;;;2.97;2.00;;;;;;;0.97;80.58;99761.75;5049192;28;20067;-82
2023/12/30 09:58:12;;;;;;;2.63;1.33;;;;;;;0.97;80.91;99761.75;5047313;28;20411;-82
2023/12/30 10:00:42;;;;;;;1.40;0.80;;;;;;;0.93;80.31;99756.59;5046262;28;20053;-82
2023/12/30 10:03:09;;;;;;;1.95;0.80;;;;;;;0.96;80.39;99765.22;5044232;28;20053;-87
2023/12/30 10:05:36;;;;;;;1.40;0.82;;;;;;;0.96;80.54;99769.47;5045884;28;20224;-80
2023/12/30 10:08:05;;;;;;;2.85;0.73;;;;;;;0.97;80.45;99768.63;5047285;28;20099;-80
2023/12/30 10:10:40;;;;;;;2.72;1.45;;;;;;;0.97;80.29;99768.63;5046316;28;20507;-82
2023/12/30 10:13:07;;;;;;;;;;;;;;;0.96;80.39;99774.63;5047393;28;20083;-81
2023/12/30 10:15:34;;;;;;;2.72;1.58;;;;;;;0.95;80.24;99784.06;5037610;28;19972;-76
2023/12/30 10:18:02;;;;;;;1.42;1.00;;;;;;;0.96;80.45;99784.94;5040979;28;20068;-77
2023/12/30 10:20:28;;;;;;;1.80;0.90;;;;;;;0.95;80.43;99789.22;5039126;28;20103;-76
2023/12/30 10:22:56;;;;;;;1.30;0.80;;;;;;;0.94;80.74;99784.94;5046360;28;20079;-79
2023/12/30 10:25:25;;;;;;;1.48;0.70;;;;;;;0.95;80.25;99789.22;5041093;28;20103;-77
2023/12/30 10:27:52;;;;;;;2.65;1.35;;;;;;;0.94;80.29;99790.09;5043991;28;20098;-78
2023/12/30 10:30:20;;;;;;;1.30;0.80;;;;;;;0.95;80.49;99799.53;5047155;28;20120;-79
2023/12/30 10:32:47;;;;;;;1.17;0.57;;;;;;;0.89;80.40;99799.53;5012424;28;20132;-75
2023/12/30 10:35:14;;;;;;;1.50;0.90;;;;;;;0.95;80.27;99809.81;5046713;28;20057;-77
2023/12/30 10:37:42;;;;;;;1.58;0.90;;;;;;;0.91;80.58;99813.28;5047112;28;20647;-76
2023/12/30 10:40:10;;;;;;;1.83;0.63;;;;;;;0.95;80.38;99827.84;5044786;28;20044;-76
2023/12/30 10:42:41;;;;;;;0.98;0.52;;;;;;;0.94;80.38;99815.84;5050011;28;20048;-79
2023/12/30 10:45:09;;;;;;;0.70;0.50;;;;;;;0.94;80.27;99828.72;5044624;28;20065;-78
2023/12/30 10:47:39;;;;;;;0.95;0.50;;;;;;;0.94;80.51;99833.88;5050899;28;20463;-77
2023/12/30 10:50:09;;;;;;;1.35;0.60;;;;;;;0.94;80.39;99839.03;5044048;28;20048;-75
2023/12/30 10:52:44;;;;;;;2.40;0.75;;;;;;;0.94;80.09;99839.03;5044987;28;20453;-76
2023/12/30 10:55:14;;;;;;;1.55;0.90;;;;;;;0.92;80.02;99839.88;5043512;28;20124;-76
2023/12/30 10:57:57;;;;;;;0.63;0.43;;;;;;;0.94;80.30;99844.19;5040384;28;20045;-74
2023/12/30 11:00:26;;;;;;;1.13;0.70;;;;;;;0.92;79.90;99851.03;5042310;28;20059;-77
2023/12/30 11:02:54;;;;;;;1.40;0.50;;;;;;;0.77;79.90;99838.13;5044827;28;20064;-78
2023/12/30 11:05:32;;;;;;;0.77;0.50;;;;;;;0.90;80.08;99863.03;5048900;28;20072;-77
2023/12/30 11:07:59;;;;;;;1.13;0.65;;;;;;;0.92;80.22;99865.63;5047344;28;20076;-77
2023/12/30 11:10:33;;;;;;;2.22;0.88;;;;;;;0.91;80.09;99866.50;5049557;28;20079;-77
2023/12/30 11:13:02;;;;;;;1.00;0.60;;;;;;;0.90;80.02;99865.63;5041854;28;20138;-75
2023/12/30 11:15:31;;;;;;;1.00;0.50;;;;;;;0.90;79.76;99873.34;5044804;28;20095;-76
2023/12/30 11:17:58;;;;;;;1.52;0.63;;;;;;;0.90;79.63;99878.50;5043286;28;20119;-72
2023/12/30 11:20:27;;;;;;;1.00;0.50;;;;;;;0.90;79.69;99883.63;5037457;28;20194;-72
2023/12/30 11:22:55;;;;;;;1.08;0.50;;;;;;;0.90;79.99;99878.50;5042959;28;20049;-71
2023/12/30 11:25:22;;;;;;;0.88;0.50;;;;;;;0.90;79.94;99885.38;5043633;28;20077;-72
2023/12/30 11:27:50;;;;;;;2.35;0.63;;;;;;;0.89;79.71;99881.94;5042952;28;20073;-72
2023/12/30 11:30:24;;;;;;;0.88;0.65;;;;;;;0.90;79.93;99887.94;5042037;28;20073;-72
2023/12/30 11:32:53;;;;;;;0.95;0.50;;;;;;;0.89;80.02;99889.66;5039600;28;20126;-73
2023/12/30 11:35:20;;;;;;;1.23;0.40;;;;;;;0.88;79.71;99892.22;5044345;28;20136;-72
2023/12/30 11:37:52;;;;;;;0.68;0.47;;;;;;;0.87;80.12;99893.09;5043691;28;20084;-72
2023/12/30 11:40:20;;;;;;;0.82;0.65;;;;;;;0.85;79.50;99900.81;5040677;28;20094;-72
2023/12/30 11:42:47;;;;;;;1.00;0.40;;;;;;;0.85;79.76;99897.34;5035499;28;20129;-71